createdAt,value
2023-04-15T00:01:08.099Z,2.42
2023-04-15T00:03:35.171Z,2.15
2023-04-15T00:06:02.411Z,2.35
2023-04-15T00:08:29.918Z,2.28
2023-04-15T00:10:56.550Z,2.28
2023-04-15T00:13:23.026Z,2.38
2023-04-15T00:15:49.510Z,2.90
2023-04-15T00:18:15.942Z,3.30
2023-04-15T00:20:42.447Z,3.00
2023-04-15T00:23:08.988Z,2.83
2023-04-15T00:25:35.589Z,2.63
2023-04-15T00:28:02.772Z,2.60
2023-04-15T00:30:29.372Z,2.78
2023-04-15T00:32:56.046Z,2.53
2023-04-15T00:35:23.917Z,2.72
2023-04-15T00:37:51.363Z,2.80
2023-04-15T00:40:20.072Z,2.70
2023-04-15T00:42:49.929Z,3.00
2023-04-15T00:45:16.373Z,2.90
2023-04-15T00:47:43.631Z,2.67
2023-04-15T00:50:12.527Z,2.78
2023-04-15T00:52:40.172Z,3.25
2023-04-15T00:55:07.578Z,3.70
2023-04-15T00:57:35.152Z,4.22
2023-04-15T01:00:02.536Z,4.22
2023-04-15T01:02:29.477Z,4.10
2023-04-15T01:04:56.744Z,4.32
2023-04-15T01:07:23.516Z,4.32
2023-04-15T01:09:50.115Z,4.40
2023-04-15T01:12:17.286Z,4.00
2023-04-15T01:14:43.771Z,4.93
2023-04-15T01:17:10.407Z,4.88
2023-04-15T01:19:38.168Z,4.55
2023-04-15T01:22:05.588Z,3.85
2023-04-15T01:24:34.088Z,3.65
2023-04-15T01:27:00.732Z,3.50
2023-04-15T01:29:27.927Z,3.40
2023-04-15T01:31:56.729Z,4.07
2023-04-15T01:34:23.550Z,3.63
2023-04-15T01:36:52.907Z,3.53
2023-04-15T01:39:19.436Z,4.47
2023-04-15T01:41:45.960Z,4.60
2023-04-15T01:44:12.457Z,5.13
2023-04-15T01:46:39.389Z,4.78
2023-04-15T01:49:06.233Z,4.95
2023-04-15T01:51:32.943Z,4.53
2023-04-15T01:53:59.389Z,4.22
2023-04-15T01:56:26.573Z,4.70
2023-04-15T01:58:53.377Z,3.90
2023-04-15T02:01:20.106Z,4.20
2023-04-15T02:03:48.049Z,4.00
2023-04-15T02:06:14.969Z,3.90
2023-04-15T02:08:41.612Z,3.95
2023-04-15T02:11:08.431Z,3.83
2023-04-15T02:13:34.957Z,4.05
2023-04-15T02:16:01.559Z,4.28
2023-04-15T02:18:28.064Z,3.95
2023-04-15T02:20:54.673Z,3.75
2023-04-15T02:23:21.171Z,3.00
2023-04-15T02:25:53.618Z,2.90
2023-04-15T02:28:21.367Z,3.17
2023-04-15T02:30:51.059Z,3.25
2023-04-15T02:33:18.086Z,2.55
2023-04-15T02:35:45.461Z,2.50
2023-04-15T02:38:12.211Z,2.72
2023-04-15T02:40:38.702Z,2.72
2023-04-15T02:43:07.178Z,2.78
2023-04-15T02:45:34.158Z,2.65
2023-04-15T02:48:06.088Z,2.78
2023-04-15T02:50:32.757Z,2.67
2023-04-15T02:53:01.185Z,2.63
2023-04-15T02:55:27.916Z,2.50
2023-04-15T02:57:59.758Z,2.78
2023-04-15T03:00:26.489Z,2.80
2023-04-15T03:03:07.209Z,2.80
2023-04-15T03:05:33.879Z,3.10
2023-04-15T03:08:03.535Z,2.25
2023-04-15T03:10:30.038Z,2.53
2023-04-15T03:12:56.497Z,2.42
2023-04-15T03:15:23.154Z,2.20
2023-04-15T03:17:49.896Z,2.22
2023-04-15T03:20:16.961Z,2.42
2023-04-15T03:22:43.652Z,1.88
2023-04-15T03:25:10.144Z,2.20
2023-04-15T03:27:37.804Z,2.20
2023-04-15T03:30:04.520Z,2.30
2023-04-15T03:32:31.792Z,2.33
2023-04-15T03:34:58.366Z,2.40
2023-04-15T03:37:24.840Z,2.15
2023-04-15T03:39:51.470Z,2.10
2023-04-15T03:42:17.931Z,2.30
2023-04-15T03:44:44.482Z,2.05
2023-04-15T03:47:10.950Z,2.28
2023-04-15T03:49:37.622Z,2.20
2023-04-15T03:52:04.418Z,2.20
2023-04-15T03:54:30.958Z,2.15
2023-04-15T03:57:00.763Z,2.03
2023-04-15T03:59:27.368Z,2.15
2023-04-15T04:01:53.902Z,2.22
2023-04-15T04:04:20.392Z,2.05
2023-04-15T04:06:46.918Z,2.00
2023-04-15T04:09:13.427Z,2.03
2023-04-15T04:11:39.865Z,2.10
2023-04-15T04:14:07.107Z,2.08
2023-04-15T04:16:33.607Z,2.10
2023-04-15T04:19:00.316Z,2.13
2023-04-15T04:21:27.151Z,1.77
2023-04-15T04:23:53.694Z,2.05
2023-04-15T04:26:20.236Z,1.90
2023-04-15T04:28:46.702Z,2.08
2023-04-15T04:31:13.408Z,2.25
2023-04-15T04:33:40.041Z,2.60
2023-04-15T04:36:06.788Z,2.28
2023-04-15T04:38:33.279Z,1.80
2023-04-15T04:41:00.369Z,1.98
2023-04-15T04:43:27.462Z,2.25
2023-04-15T04:45:53.983Z,2.08
2023-04-15T04:48:20.649Z,1.95
2023-04-15T04:50:47.261Z,2.05
2023-04-15T04:53:13.859Z,1.77
2023-04-15T04:55:40.529Z,1.80
2023-04-15T04:58:07.053Z,2.13
2023-04-15T05:00:33.706Z,1.80
2023-04-15T05:03:01.014Z,1.90
2023-04-15T05:05:27.607Z,2.20
2023-04-15T05:07:54.062Z,2.25
2023-04-15T05:10:21.066Z,1.88
2023-04-15T05:12:47.655Z,1.90
2023-04-15T05:15:14.142Z,1.95
2023-04-15T05:17:40.615Z,2.58
2023-04-15T05:20:07.944Z,2.22
2023-04-15T05:22:34.620Z,2.10
2023-04-15T05:25:01.110Z,2.45
2023-04-15T05:27:27.658Z,2.53
2023-04-15T05:29:54.098Z,2.40
2023-04-15T05:32:20.710Z,2.50
2023-04-15T05:34:47.241Z,2.03
2023-04-15T05:37:13.870Z,2.58
2023-04-15T05:39:40.414Z,2.10
2023-04-15T05:42:07.008Z,3.15
2023-04-15T05:44:33.430Z,2.50
2023-04-15T05:47:00.065Z,2.75
2023-04-15T05:49:27.559Z,3.03
2023-04-15T05:51:54.298Z,2.33
2023-04-15T05:54:22.539Z,2.58
2023-04-15T05:56:49.409Z,2.90
2023-04-15T05:59:16.067Z,3.00
2023-04-15T06:01:43.028Z,2.63
2023-04-15T06:04:09.810Z,2.95
2023-04-15T06:06:36.453Z,2.40
2023-04-15T06:09:03.183Z,2.70
2023-04-15T06:11:29.809Z,2.60
2023-04-15T06:13:56.613Z,2.70
2023-04-15T06:16:26.436Z,3.17
2023-04-15T06:18:52.938Z,2.97
2023-04-15T06:21:19.567Z,2.97
2023-04-15T06:23:46.306Z,3.40
2023-04-15T06:26:12.805Z,3.10
2023-04-15T06:28:39.237Z,2.78
2023-04-15T06:31:06.016Z,3.03
2023-04-15T06:33:32.487Z,2.88
2023-04-15T06:35:59.110Z,3.00
2023-04-15T06:38:25.885Z,2.55
2023-04-15T06:40:52.504Z,2.72
2023-04-15T06:43:19.740Z,2.58
2023-04-15T06:45:46.309Z,2.92
2023-04-15T06:48:13.082Z,2.90
2023-04-15T06:50:39.652Z,2.50
2023-04-15T06:53:06.625Z,2.67
2023-04-15T06:55:33.983Z,2.88
2023-04-15T06:58:01.202Z,2.25
2023-04-15T07:00:28.690Z,2.78
2023-04-15T07:02:55.856Z,2.28
2023-04-15T07:05:22.564Z,2.67
2023-04-15T07:07:48.995Z,2.88
2023-04-15T07:10:15.893Z,3.58
2023-04-15T07:12:42.525Z,2.35
2023-04-15T07:15:09.482Z,2.70
2023-04-15T07:17:36.070Z,2.97
2023-04-15T07:20:03.094Z,2.90
2023-04-15T07:22:29.624Z,2.67
2023-04-15T07:24:56.317Z,3.38
2023-04-15T07:27:22.993Z,3.42
2023-04-15T07:29:51.469Z,2.80
2023-04-15T07:32:18.224Z,3.60
2023-04-15T07:34:44.828Z,3.65
2023-04-15T07:37:11.349Z,3.50
2023-04-15T07:39:38.026Z,4.18
2023-04-15T07:42:04.697Z,4.20
2023-04-15T07:44:31.644Z,6.25
2023-04-15T07:46:58.073Z,4.40
2023-04-15T07:49:24.521Z,3.92
2023-04-15T07:51:51.467Z,3.42
2023-04-15T07:54:18.081Z,3.38
2023-04-15T07:56:44.538Z,3.45
2023-04-15T07:59:12.352Z,3.17
2023-04-15T08:01:38.960Z,3.22
2023-04-15T08:04:07.849Z,3.03
2023-04-15T08:09:01.786Z,7.45
2023-04-15T08:11:28.613Z,6.35
2023-04-15T08:13:55.356Z,5.57
2023-04-15T08:16:27.920Z,3.70
2023-04-15T08:18:56.760Z,3.63
2023-04-15T08:21:24.620Z,3.20
2023-04-15T08:23:52.843Z,3.55
2023-04-15T08:26:20.988Z,3.47
2023-04-15T08:28:47.775Z,3.00
2023-04-15T08:31:15.586Z,3.10
2023-04-15T08:33:42.600Z,3.28
2023-04-15T08:36:09.421Z,3.38
2023-04-15T08:38:36.570Z,3.75
2023-04-15T08:41:11.810Z,3.85
2023-04-15T08:43:48.969Z,3.53
2023-04-15T08:46:16.688Z,3.67
2023-04-15T08:48:44.187Z,3.70
2023-04-15T08:51:10.949Z,4.18
2023-04-15T08:53:37.677Z,3.50
2023-04-15T08:56:07.516Z,3.55
2023-04-15T08:58:35.655Z,3.33
2023-04-15T09:01:02.482Z,3.63
2023-04-15T09:03:29.323Z,5.00
2023-04-15T09:05:57.314Z,3.60
2023-04-15T09:08:23.881Z,4.18
2023-04-15T09:10:50.506Z,4.72
2023-04-15T09:13:17.030Z,4.03
2023-04-15T09:15:43.993Z,3.63
2023-04-15T09:18:13.557Z,4.10
2023-04-15T09:20:44.193Z,6.00
2023-04-15T09:23:15.689Z,4.88
2023-04-15T09:25:42.626Z,4.72
2023-04-15T09:28:09.561Z,5.07
2023-04-15T09:30:36.768Z,4.10
2023-04-15T09:33:10.932Z,3.75
2023-04-15T09:35:37.599Z,4.45
2023-04-15T09:38:07.254Z,4.00
2023-04-15T09:40:37.544Z,4.22
2023-04-15T09:43:05.472Z,4.38
2023-04-15T09:45:33.425Z,4.63
2023-04-15T09:48:15.466Z,5.32
2023-04-15T09:50:43.922Z,4.97
2023-04-15T09:53:12.393Z,5.72
2023-04-15T09:55:38.792Z,5.22
2023-04-15T09:58:22.088Z,5.28
2023-04-15T10:00:50.386Z,5.50
2023-04-15T10:03:25.129Z,9.35
2023-04-15T10:05:57.141Z,17.80
2023-04-15T10:08:25.854Z,16.60
2023-04-15T10:10:53.182Z,11.95
2023-04-15T10:13:24.739Z,9.05
2023-04-15T10:16:00.807Z,6.82
2023-04-15T10:18:28.761Z,6.82
2023-04-15T10:20:55.997Z,6.65
2023-04-15T10:23:24.453Z,6.50
2023-04-15T10:25:56.810Z,7.28
2023-04-15T10:28:23.255Z,7.88
2023-04-15T10:30:50.046Z,8.45
2023-04-15T10:33:24.496Z,8.10
2023-04-15T10:35:52.761Z,7.43
2023-04-15T10:38:34.566Z,8.30
2023-04-15T10:41:21.011Z,8.05
2023-04-15T10:43:52.792Z,7.90
2023-04-15T10:46:23.984Z,9.15
2023-04-15T10:48:52.916Z,9.38
2023-04-15T10:51:30.509Z,8.23
2023-04-15T10:54:00.941Z,8.43
2023-04-15T10:56:31.375Z,8.20
2023-04-15T10:59:01.418Z,8.60
2023-04-15T11:01:50.699Z,9.25
2023-04-15T11:04:53.405Z,9.30
2023-04-15T11:07:35.967Z,9.02
2023-04-15T11:10:03.017Z,10.50
2023-04-15T11:12:36.376Z,10.07
2023-04-15T11:15:32.402Z,9.63
2023-04-15T11:18:24.558Z,10.05
2023-04-15T11:20:52.043Z,10.13
2023-04-15T11:23:20.014Z,10.00
2023-04-15T11:25:46.464Z,10.68
2023-04-15T11:28:13.774Z,10.68
2023-04-15T11:30:40.640Z,10.52
2023-04-15T11:33:09.859Z,9.45
2023-04-15T11:35:36.673Z,10.05
2023-04-15T11:38:10.057Z,10.63
2023-04-15T11:40:37.563Z,10.18
2023-04-15T11:43:09.392Z,11.27
2023-04-15T11:45:37.260Z,10.27
2023-04-15T11:48:12.107Z,10.63
2023-04-15T11:50:41.048Z,10.73
2023-04-15T11:53:10.557Z,10.23
2023-04-15T11:55:44.778Z,10.73
2023-04-15T11:58:23.275Z,10.82
2023-04-15T12:00:54.119Z,10.00
2023-04-15T12:03:27.343Z,10.60
2023-04-15T12:06:17.261Z,10.07
2023-04-15T12:08:56.030Z,11.20
2023-04-15T12:11:36.101Z,12.10
2023-04-15T12:14:06.739Z,12.60
2023-04-15T12:16:49.175Z,10.88
2023-04-15T12:19:39.063Z,10.00
2023-04-15T12:22:10.186Z,9.88
2023-04-15T12:24:37.622Z,9.63
2023-04-15T12:27:05.645Z,9.32
2023-04-15T12:29:34.267Z,9.75
2023-04-15T12:32:14.997Z,8.75
2023-04-15T12:34:43.579Z,9.25
2023-04-15T12:37:13.087Z,8.88
2023-04-15T12:39:42.024Z,8.30
2023-04-15T12:44:36.649Z,6.95
2023-04-15T12:47:03.436Z,7.88
2023-04-15T12:49:32.510Z,7.63
2023-04-15T12:52:00.693Z,8.65
2023-04-15T12:54:27.834Z,9.15
2023-04-15T12:56:54.702Z,8.45
2023-04-15T12:59:21.663Z,8.43
2023-04-15T13:01:49.006Z,7.53
2023-04-15T13:04:16.614Z,7.70
2023-04-15T13:06:43.716Z,7.65
2023-04-15T13:09:10.258Z,8.02
2023-04-15T13:11:36.812Z,7.18
2023-04-15T13:14:06.165Z,11.05
2023-04-15T13:16:33.348Z,8.75
2023-04-15T13:19:00.977Z,9.20
2023-04-15T13:21:28.352Z,9.98
2023-04-15T13:23:55.615Z,8.15
2023-04-15T13:26:22.203Z,6.75
2023-04-15T13:28:48.581Z,6.50
2023-04-15T13:31:15.225Z,6.32
2023-04-15T13:33:41.656Z,5.90
2023-04-15T13:36:08.422Z,5.80
2023-04-15T13:38:35.170Z,6.55
2023-04-15T13:41:01.617Z,6.43
2023-04-15T13:43:28.509Z,5.53
2023-04-15T13:45:55.290Z,5.32
2023-04-15T13:48:21.863Z,5.75
2023-04-15T13:50:48.316Z,5.43
2023-04-15T13:53:16.955Z,5.18
2023-04-15T13:55:43.423Z,4.80
2023-04-15T13:58:10.268Z,5.05
2023-04-15T14:00:36.867Z,5.35
2023-04-15T14:03:04.025Z,5.88
2023-04-15T14:05:32.915Z,5.47
2023-04-15T14:08:01.413Z,4.97
2023-04-15T14:10:27.814Z,4.57
2023-04-15T14:12:54.291Z,4.57
2023-04-15T14:15:21.375Z,4.45
2023-04-15T14:17:47.878Z,4.72
2023-04-15T14:20:16.756Z,4.63
2023-04-15T14:22:43.714Z,4.72
2023-04-15T14:25:11.716Z,4.35
2023-04-15T14:27:43.895Z,4.60
2023-04-15T14:30:10.902Z,4.25
2023-04-15T14:32:37.410Z,3.83
2023-04-15T14:35:04.366Z,4.50
2023-04-15T14:37:31.022Z,4.93
2023-04-15T14:39:57.538Z,4.57
2023-04-15T14:42:24.024Z,4.60
2023-04-15T14:44:50.519Z,4.63
2023-04-15T14:47:17.146Z,4.63
2023-04-15T14:49:44.057Z,4.60
2023-04-15T14:52:10.530Z,4.28
2023-04-15T14:54:36.989Z,4.32
2023-04-15T14:57:09.073Z,4.55
2023-04-15T14:59:35.828Z,3.90
2023-04-15T15:02:02.364Z,4.18
2023-04-15T15:04:29.389Z,4.78
2023-04-15T15:06:56.143Z,5.03
2023-04-15T15:09:23.858Z,5.15
2023-04-15T15:11:50.834Z,5.20
2023-04-15T15:14:17.349Z,5.97
2023-04-15T15:16:44.022Z,6.03
2023-04-15T15:19:10.584Z,4.45
2023-04-15T15:21:37.455Z,5.03
2023-04-15T15:24:04.044Z,5.53
2023-04-15T15:26:30.461Z,5.43
2023-04-15T15:28:57.000Z,5.57
2023-04-15T15:31:23.708Z,4.82
2023-04-15T15:33:51.663Z,5.13
2023-04-15T15:36:18.130Z,4.28
2023-04-15T15:38:44.600Z,5.32
2023-04-15T15:41:11.895Z,5.03
2023-04-15T15:43:38.286Z,5.20
2023-04-15T15:46:04.743Z,5.22
2023-04-15T15:48:31.228Z,5.65
2023-04-15T15:50:57.758Z,5.05
2023-04-15T15:53:25.874Z,5.15
2023-04-15T15:55:53.846Z,4.90
2023-04-15T15:58:21.200Z,4.88
2023-04-15T16:00:47.836Z,5.78
2023-04-15T16:03:15.443Z,6.00
2023-04-15T16:05:42.223Z,5.78
2023-04-15T16:08:08.711Z,5.80
2023-04-15T16:10:35.298Z,4.40
2023-04-15T16:13:02.395Z,4.55
2023-04-15T16:15:28.991Z,4.72
2023-04-15T16:17:55.605Z,5.13
2023-04-15T16:20:22.082Z,4.10
2023-04-15T16:22:48.778Z,4.90
2023-04-15T16:25:15.370Z,5.38
2023-04-15T16:27:54.582Z,5.30
2023-04-15T16:30:25.983Z,5.15
2023-04-15T16:32:52.703Z,5.72
2023-04-15T16:35:19.926Z,5.82
2023-04-15T16:37:46.509Z,5.60
2023-04-15T16:40:13.101Z,6.10
2023-04-15T16:42:41.251Z,5.72
2023-04-15T16:45:07.912Z,8.23
2023-04-15T16:47:34.502Z,6.88
2023-04-15T16:50:01.022Z,5.25
2023-04-15T16:52:28.948Z,5.15
2023-04-15T16:54:55.871Z,5.15
2023-04-15T16:57:22.297Z,8.82
2023-04-15T16:59:51.546Z,7.28
2023-04-15T17:02:18.164Z,5.75
2023-04-15T17:04:44.812Z,6.05
2023-04-15T17:07:11.433Z,5.63
2023-04-15T17:09:41.124Z,5.82
2023-04-15T17:12:07.882Z,6.30
2023-04-15T17:14:35.114Z,6.68
2023-04-15T17:17:01.732Z,7.45
2023-04-15T17:19:28.357Z,7.85
2023-04-15T17:21:55.146Z,7.00
2023-04-15T17:24:21.913Z,6.63
2023-04-15T17:26:48.632Z,5.88
2023-04-15T17:29:15.173Z,7.15
2023-04-15T17:31:42.064Z,7.72
2023-04-15T17:34:10.255Z,18.10
2023-04-15T17:36:37.954Z,42.65
2023-04-15T17:39:04.727Z,26.80
2023-04-15T17:41:31.341Z,25.15
2023-04-15T17:43:57.814Z,16.33
2023-04-15T17:46:24.330Z,10.40
2023-04-15T17:48:50.889Z,14.70
2023-04-15T17:51:17.328Z,14.63
2023-04-15T17:53:45.738Z,14.45
2023-04-15T17:56:12.189Z,21.30
2023-04-15T17:58:39.186Z,27.95
2023-04-15T18:01:06.306Z,29.70
2023-04-15T18:03:33.028Z,20.77
2023-04-15T18:06:01.309Z,11.50
2023-04-15T18:08:28.908Z,8.32
2023-04-15T18:10:55.528Z,7.05
2023-04-15T18:13:22.067Z,6.50
2023-04-15T18:15:49.445Z,6.40
2023-04-15T18:18:16.017Z,5.82
2023-04-15T18:20:42.485Z,6.60
2023-04-15T18:23:08.932Z,6.18
2023-04-15T18:25:38.085Z,5.70
2023-04-15T18:28:05.358Z,5.57
2023-04-15T18:30:31.825Z,5.80
2023-04-15T18:32:58.262Z,6.22
2023-04-15T18:35:24.784Z,6.72
2023-04-15T18:37:52.558Z,6.53
2023-04-15T18:40:19.075Z,6.95
2023-04-15T18:42:45.651Z,7.55
2023-04-15T18:45:12.044Z,8.10
2023-04-15T18:47:38.588Z,6.82
2023-04-15T18:50:05.625Z,8.20
2023-04-15T18:52:33.780Z,8.43
2023-04-15T18:55:00.766Z,8.73
2023-04-15T18:57:32.272Z,8.68
2023-04-15T19:00:01.926Z,8.00
2023-04-15T19:02:28.565Z,7.72
2023-04-15T19:04:55.200Z,7.47
2023-04-15T19:07:23.080Z,7.97
2023-04-15T19:09:53.082Z,7.40
2023-04-15T19:12:19.663Z,7.13
2023-04-15T19:14:46.103Z,7.90
2023-04-15T19:17:12.537Z,7.95
2023-04-15T19:19:38.993Z,7.43
2023-04-15T19:22:06.135Z,8.38
2023-04-15T19:24:33.292Z,7.68
2023-04-15T19:26:59.959Z,7.82
2023-04-15T19:29:28.472Z,7.88
2023-04-15T19:31:55.029Z,7.63
2023-04-15T19:34:21.944Z,6.72
2023-04-15T19:36:48.601Z,6.57
2023-04-15T19:39:15.508Z,6.90
2023-04-15T19:41:43.917Z,6.88
2023-04-15T19:44:12.763Z,7.22
2023-04-15T19:46:40.419Z,6.75
2023-04-15T19:49:07.123Z,7.20
2023-04-15T19:51:33.749Z,7.10
2023-04-15T19:54:00.327Z,7.10
2023-04-15T19:56:26.754Z,6.72
2023-04-15T19:58:54.904Z,7.13
2023-04-15T20:01:22.144Z,7.07
2023-04-15T20:03:48.853Z,6.63
2023-04-15T20:06:15.855Z,6.72
2023-04-15T20:08:42.378Z,6.38
2023-04-15T20:11:12.261Z,6.63
2023-04-15T20:13:41.640Z,6.57
2023-04-15T20:16:08.239Z,6.90
2023-04-15T20:18:34.915Z,6.97
2023-04-15T20:21:01.516Z,6.40
2023-04-15T20:23:28.051Z,7.05
2023-04-15T20:25:54.687Z,6.80
2023-04-15T20:28:23.319Z,6.25
2023-04-15T20:30:49.759Z,7.28
2023-04-15T20:33:16.333Z,6.70
2023-04-15T20:35:42.845Z,7.68
2023-04-15T20:38:09.367Z,6.93
2023-04-15T20:40:36.384Z,7.03
2023-04-15T20:43:02.819Z,7.38
2023-04-15T20:45:29.261Z,7.88
2023-04-15T20:47:56.084Z,6.95
2023-04-15T20:50:22.605Z,7.05
2023-04-15T20:52:49.033Z,7.30
2023-04-15T20:55:15.705Z,6.93
2023-04-15T20:57:42.158Z,6.68
2023-04-15T21:00:11.870Z,7.25
2023-04-15T21:02:38.657Z,7.35
2023-04-15T21:05:06.070Z,7.20
2023-04-15T21:07:32.698Z,6.75
2023-04-15T21:09:59.303Z,7.53
2023-04-15T21:12:25.745Z,7.38
2023-04-15T21:14:52.384Z,7.90
2023-04-15T21:17:18.850Z,7.70
2023-04-15T21:19:45.315Z,7.40
2023-04-15T21:22:11.894Z,7.35
2023-04-15T21:24:38.398Z,7.70
2023-04-15T21:27:04.836Z,6.75
2023-04-15T21:29:31.321Z,7.30
2023-04-15T21:31:57.900Z,6.65
2023-04-15T21:34:24.396Z,7.30
2023-04-15T21:36:50.828Z,7.03
2023-04-15T21:39:17.266Z,6.70
2023-04-15T21:41:43.768Z,6.47
2023-04-15T21:44:11.139Z,6.97
2023-04-15T21:46:38.619Z,6.45
2023-04-15T21:49:06.977Z,7.03
2023-04-15T21:51:33.767Z,7.10
2023-04-15T21:54:00.281Z,6.97
2023-04-15T21:56:26.757Z,6.32
2023-04-15T21:58:56.828Z,7.43
2023-04-15T22:01:24.226Z,6.57
2023-04-15T22:03:51.223Z,7.15
2023-04-15T22:06:18.297Z,6.70
2023-04-15T22:08:56.190Z,7.22
2023-04-15T22:11:27.447Z,7.03
2023-04-15T22:13:54.647Z,6.78
2023-04-15T22:16:21.169Z,7.05
2023-04-15T22:18:47.666Z,6.68
2023-04-15T22:21:14.391Z,6.88
2023-04-15T22:23:41.090Z,7.13
2023-04-15T22:26:07.560Z,6.47
2023-04-15T22:28:33.995Z,6.75
2023-04-15T22:31:00.625Z,6.65
2023-04-15T22:33:27.232Z,7.45
2023-04-15T22:35:53.713Z,6.93
2023-04-15T22:38:20.213Z,7.60
2023-04-15T22:40:46.626Z,6.53
2023-04-15T22:43:13.036Z,6.80
2023-04-15T22:45:39.561Z,7.18
2023-04-15T22:48:06.224Z,7.10
2023-04-15T22:50:32.941Z,6.53
2023-04-15T22:52:59.375Z,6.95
2023-04-15T22:55:25.953Z,7.03
2023-04-15T22:57:52.686Z,6.47
2023-04-15T23:00:19.292Z,7.00
2023-04-15T23:02:46.085Z,6.70
2023-04-15T23:05:13.481Z,6.93
2023-04-15T23:07:40.306Z,7.75
2023-04-15T23:10:07.994Z,7.47
2023-04-15T23:12:34.724Z,8.68
2023-04-15T23:15:01.186Z,7.47
2023-04-15T23:17:27.698Z,7.15
2023-04-15T23:19:54.102Z,7.90
2023-04-15T23:22:20.716Z,8.68
2023-04-15T23:24:47.179Z,8.77
2023-04-15T23:27:13.576Z,8.00
2023-04-15T23:29:39.981Z,8.30
2023-04-15T23:32:06.697Z,8.20
2023-04-15T23:34:33.163Z,8.07
2023-04-15T23:36:59.585Z,7.70
2023-04-15T23:39:26.442Z,8.18
2023-04-15T23:41:53.280Z,8.63
2023-04-15T23:44:20.313Z,8.73
2023-04-15T23:46:46.962Z,8.95
2023-04-15T23:49:13.541Z,8.93
2023-04-15T23:51:40.215Z,8.60
2023-04-15T23:54:06.692Z,9.60
2023-04-15T23:56:33.149Z,8.75
2023-04-15T23:58:59.573Z,8.27
